createdAt,value
2023-07-08T00:06:43.313Z,57
2023-07-08T00:16:43.589Z,58
2023-07-08T00:26:43.704Z,58
2023-07-08T00:36:43.915Z,59
2023-07-08T00:46:44.200Z,59
2023-07-08T00:56:44.287Z,59
2023-07-08T01:06:44.555Z,59
2023-07-08T01:16:44.774Z,59
2023-07-08T01:26:44.876Z,59
2023-07-08T01:36:45.069Z,59
2023-07-08T01:46:45.277Z,59
2023-07-08T02:06:45.663Z,60
2023-07-08T02:16:45.866Z,60
2023-07-08T02:26:46.027Z,60
2023-07-08T02:36:46.226Z,60
2023-07-08T02:46:46.422Z,60
2023-07-08T02:56:46.643Z,60
2023-07-08T03:06:46.817Z,61
2023-07-08T03:16:47.086Z,61
2023-07-08T03:26:47.212Z,62
2023-07-08T03:36:47.423Z,62
2023-07-08T03:46:47.652Z,63
2023-07-08T03:56:47.798Z,63
2023-07-08T04:06:48.008Z,65
2023-07-08T04:26:48.389Z,65
2023-07-08T04:36:48.582Z,65
2023-07-08T04:46:48.839Z,65
2023-07-08T04:56:48.969Z,65
2023-07-08T05:06:49.176Z,65
2023-07-08T05:16:49.367Z,64
2023-07-08T05:26:49.563Z,65
2023-07-08T05:36:49.806Z,65
2023-07-08T05:46:49.986Z,64
2023-07-08T05:56:50.219Z,64
2023-07-08T06:06:50.414Z,61
2023-07-08T06:16:50.553Z,60
2023-07-08T06:36:50.924Z,58
2023-07-08T06:46:51.146Z,56
2023-07-08T06:56:51.317Z,55
2023-07-08T07:06:51.508Z,55
2023-07-08T07:17:06.296Z,54
2023-07-08T07:26:51.910Z,54
2023-07-08T07:36:52.098Z,53
2023-07-08T07:46:52.460Z,52
2023-07-08T07:56:52.536Z,52
2023-07-08T08:06:52.706Z,52
2023-07-08T08:16:52.922Z,52
2023-07-08T08:36:53.273Z,50
2023-07-08T08:46:53.545Z,48
2023-07-08T08:56:53.671Z,48
2023-07-08T09:06:54.240Z,45
2023-07-08T09:16:54.255Z,44
2023-07-08T09:26:54.242Z,42
2023-07-08T09:36:54.447Z,42
2023-07-08T09:46:54.702Z,41
2023-07-08T09:56:54.827Z,41
2023-07-08T10:06:55.040Z,41
2023-07-08T10:36:55.624Z,39
2023-07-08T10:46:55.811Z,39
2023-07-08T10:56:56.004Z,38
2023-07-08T11:26:58.540Z,36
2023-07-08T13:46:59.489Z,31
2023-07-08T13:56:59.597Z,31
2023-07-08T14:06:59.800Z,32
2023-07-08T14:16:59.992Z,32
2023-07-08T14:37:02.339Z,31
2023-07-08T14:57:00.773Z,30
2023-07-08T15:17:01.199Z,31
2023-07-08T15:57:01.980Z,31
2023-07-08T16:27:02.566Z,30
2023-07-08T16:37:02.768Z,31
2023-07-08T16:47:02.989Z,31
2023-07-08T16:57:03.147Z,32
2023-07-08T17:17:03.559Z,34
2023-07-08T17:27:03.759Z,35
2023-07-08T17:37:03.961Z,35
2023-07-08T17:47:04.321Z,36
2023-07-08T17:57:04.349Z,36
2023-07-08T18:07:04.548Z,37
2023-07-08T18:17:04.742Z,37
2023-07-08T18:27:04.979Z,37
2023-07-08T18:37:05.134Z,38
2023-07-08T18:47:05.362Z,39
2023-07-08T18:57:05.537Z,39
2023-07-08T19:07:05.721Z,40
2023-07-08T19:17:05.949Z,40
2023-07-08T19:27:06.118Z,41
2023-07-08T19:37:06.329Z,41
2023-07-08T19:57:06.700Z,42
2023-07-08T20:07:06.902Z,44
2023-07-08T20:17:07.096Z,45
2023-07-08T22:17:11.026Z,59
2023-07-08T22:27:09.641Z,58
2023-07-08T22:37:09.839Z,59
2023-07-08T22:57:10.248Z,62
2023-07-08T23:17:10.643Z,64
2023-07-08T23:27:10.825Z,64
2023-07-08T23:47:11.240Z,64
2023-07-08T23:57:11.383Z,66
